sensor_id;sensor_type;location;lat;lon;timestamp;pressure;altitude;pressure_sealevel;temperature;humidity
76726;BME280;65651;53.154;17.916;2023-12-07T00:00:36;101401.17;;;-2.50;85.48
76726;BME280;65651;53.154;17.916;2023-12-07T00:03:23;101401.41;;;-2.52;85.47
76726;BME280;65651;53.154;17.916;2023-12-07T00:05:50;101410.04;;;-2.53;85.50
76726;BME280;65651;53.154;17.916;2023-12-07T00:08:17;101405.30;;;-2.53;85.38
76726;BME280;65651;53.154;17.916;2023-12-07T00:10:44;101407.60;;;-2.54;85.46
76726;BME280;65651;53.154;17.916;2023-12-07T00:13:11;101406.69;;;-2.53;85.54
76726;BME280;65651;53.154;17.916;2023-12-07T00:15:38;101414.40;;;-2.52;85.47
76726;BME280;65651;53.154;17.916;2023-12-07T00:18:05;101408.60;;;-2.51;85.56
76726;BME280;65651;53.154;17.916;2023-12-07T00:20:32;101409.81;;;-2.51;85.59
76726;BME280;65651;53.154;17.916;2023-12-07T00:22:59;101411.50;;;-2.48;85.60
76726;BME280;65651;53.154;17.916;2023-12-07T00:25:27;101412.70;;;-2.47;85.49
76726;BME280;65651;53.154;17.916;2023-12-07T00:27:56;101418.47;;;-2.47;85.60
76726;BME280;65651;53.154;17.916;2023-12-07T00:30:23;101413.38;;;-2.47;85.48
76726;BME280;65651;53.154;17.916;2023-12-07T00:32:51;101417.08;;;-2.47;85.44
76726;BME280;65651;53.154;17.916;2023-12-07T00:35:21;101413.81;;;-2.50;85.49
76726;BME280;65651;53.154;17.916;2023-12-07T00:37:51;101419.80;;;-2.44;85.42
76726;BME280;65651;53.154;17.916;2023-12-07T00:40:18;101421.52;;;-2.42;85.38
76726;BME280;65651;53.154;17.916;2023-12-07T00:42:46;101422.69;;;-2.40;85.39
76726;BME280;65651;53.154;17.916;2023-12-07T00:45:13;101424.45;;;-2.40;85.49
76726;BME280;65651;53.154;17.916;2023-12-07T00:47:41;101421.30;;;-2.41;85.32
76726;BME280;65651;53.154;17.916;2023-12-07T00:50:12;101423.92;;;-2.40;85.55
76726;BME280;65651;53.154;17.916;2023-12-07T00:52:40;101429.61;;;-2.42;85.31
76726;BME280;65651;53.154;17.916;2023-12-07T00:55:08;101428.58;;;-2.43;85.41
76726;BME280;65651;53.154;17.916;2023-12-07T00:57:35;101427.13;;;-2.41;85.42
76726;BME280;65651;53.154;17.916;2023-12-07T01:00:06;101427.61;;;-2.40;85.51
76726;BME280;65651;53.154;17.916;2023-12-07T01:02:35;101430.54;;;-2.38;85.40
76726;BME280;65651;53.154;17.916;2023-12-07T01:05:02;101434.17;;;-2.36;85.42
76726;BME280;65651;53.154;17.916;2023-12-07T01:07:30;101437.27;;;-2.34;85.22
76726;BME280;65651;53.154;17.916;2023-12-07T01:09:57;101440.65;;;-2.35;85.24
76726;BME280;65651;53.154;17.916;2023-12-07T01:12:24;101442.81;;;-2.37;85.20
76726;BME280;65651;53.154;17.916;2023-12-07T01:14:51;101442.47;;;-2.37;85.34
76726;BME280;65651;53.154;17.916;2023-12-07T01:17:20;101443.58;;;-2.39;85.21
76726;BME280;65651;53.154;17.916;2023-12-07T01:19:47;101442.39;;;-2.41;85.36
76726;BME280;65651;53.154;17.916;2023-12-07T01:22:14;101443.59;;;-2.40;85.30
76726;BME280;65651;53.154;17.916;2023-12-07T01:24:42;101446.56;;;-2.38;85.29
76726;BME280;65651;53.154;17.916;2023-12-07T01:27:10;101449.16;;;-2.37;85.32
76726;BME280;65651;53.154;17.916;2023-12-07T01:29:37;101451.99;;;-2.38;85.38
76726;BME280;65651;53.154;17.916;2023-12-07T01:32:05;101449.38;;;-2.39;85.51
76726;BME280;65651;53.154;17.916;2023-12-07T01:34:32;101449.38;;;-2.39;85.34
76726;BME280;65651;53.154;17.916;2023-12-07T01:36:59;101454.60;;;-2.37;85.35
76726;BME280;65651;53.154;17.916;2023-12-07T01:39:27;101449.16;;;-2.37;85.41
76726;BME280;65651;53.154;17.916;2023-12-07T01:41:54;101445.79;;;-2.36;85.33
76726;BME280;65651;53.154;17.916;2023-12-07T01:44:22;101451.10;;;-2.38;85.45
76726;BME280;65651;53.154;17.916;2023-12-07T01:46:49;101450.43;;;-2.39;85.42
76726;BME280;65651;53.154;17.916;2023-12-07T01:49:17;101448.48;;;-2.38;85.28
76726;BME280;65651;53.154;17.916;2023-12-07T01:51:45;101450.60;;;-2.39;85.23
76726;BME280;65651;53.154;17.916;2023-12-07T01:54:13;101452.55;;;-2.39;85.29
76726;BME280;65651;53.154;17.916;2023-12-07T01:56:40;101453.06;;;-2.38;85.27
76726;BME280;65651;53.154;17.916;2023-12-07T01:59:08;101453.60;;;-2.39;85.39
76726;BME280;65651;53.154;17.916;2023-12-07T02:01:36;101452.20;;;-2.39;85.21
76726;BME280;65651;53.154;17.916;2023-12-07T02:04:04;101454.65;;;-2.39;85.32
76726;BME280;65651;53.154;17.916;2023-12-07T02:06:31;101455.55;;;-2.40;85.33
76726;BME280;65651;53.154;17.916;2023-12-07T02:08:59;101454.14;;;-2.39;85.39
76726;BME280;65651;53.154;17.916;2023-12-07T02:11:27;101452.52;;;-2.38;85.39
76726;BME280;65651;53.154;17.916;2023-12-07T02:13:54;101452.09;;;-2.35;85.40
76726;BME280;65651;53.154;17.916;2023-12-07T02:16:32;101446.98;;;-2.35;85.35
76726;BME280;65651;53.154;17.916;2023-12-07T02:21:48;101439.55;;;-2.39;85.35
76726;BME280;65651;53.154;17.916;2023-12-07T02:24:21;101446.42;;;-2.40;85.59
76726;BME280;65651;53.154;17.916;2023-12-07T02:26:50;101447.83;;;-2.40;85.18
76726;BME280;65651;53.154;17.916;2023-12-07T02:29:20;101455.59;;;-2.41;85.40
76726;BME280;65651;53.154;17.916;2023-12-07T02:31:47;101456.26;;;-2.40;85.37
76726;BME280;65651;53.154;17.916;2023-12-07T02:34:15;101457.09;;;-2.38;85.43
76726;BME280;65651;53.154;17.916;2023-12-07T02:36:44;101458.32;;;-2.37;85.27
76726;BME280;65651;53.154;17.916;2023-12-07T02:39:16;101459.90;;;-2.38;85.37
76726;BME280;65651;53.154;17.916;2023-12-07T02:41:45;101459.91;;;-2.38;85.38
76726;BME280;65651;53.154;17.916;2023-12-07T02:44:14;101460.73;;;-2.36;85.36
76726;BME280;65651;53.154;17.916;2023-12-07T02:46:42;101460.80;;;-2.32;85.38
76726;BME280;65651;53.154;17.916;2023-12-07T02:49:09;101458.08;;;-2.29;85.50
76726;BME280;65651;53.154;17.916;2023-12-07T02:51:36;101463.89;;;-2.30;85.40
76726;BME280;65651;53.154;17.916;2023-12-07T02:54:04;101467.77;;;-2.30;85.41
76726;BME280;65651;53.154;17.916;2023-12-07T02:56:31;101467.84;;;-2.32;85.38
76726;BME280;65651;53.154;17.916;2023-12-07T02:58:59;101469.23;;;-2.32;85.41
76726;BME280;65651;53.154;17.916;2023-12-07T03:01:26;101469.74;;;-2.31;85.37
76726;BME280;65651;53.154;17.916;2023-12-07T03:03:53;101467.05;;;-2.30;85.34
76726;BME280;65651;53.154;17.916;2023-12-07T03:06:21;101466.45;;;-2.27;85.46
76726;BME280;65651;53.154;17.916;2023-12-07T03:08:48;101466.98;;;-2.27;85.25
76726;BME280;65651;53.154;17.916;2023-12-07T03:11:16;101471.35;;;-2.26;85.42
76726;BME280;65651;53.154;17.916;2023-12-07T03:13:43;101468.40;;;-2.28;85.28
76726;BME280;65651;53.154;17.916;2023-12-07T03:16:10;101467.10;;;-2.31;85.25
76726;BME280;65651;53.154;17.916;2023-12-07T03:18:37;101466.49;;;-2.35;85.31
76726;BME280;65651;53.154;17.916;2023-12-07T03:21:05;101465.10;;;-2.35;85.31
76726;BME280;65651;53.154;17.916;2023-12-07T03:23:32;101461.06;;;-2.35;85.36
76726;BME280;65651;53.154;17.916;2023-12-07T03:25:59;101459.14;;;-2.36;85.40
76726;BME280;65651;53.154;17.916;2023-12-07T03:28:27;101461.14;;;-2.38;85.50
76726;BME280;65651;53.154;17.916;2023-12-07T03:30:54;101460.42;;;-2.44;85.42
76726;BME280;65651;53.154;17.916;2023-12-07T03:33:21;101455.57;;;-2.47;85.49
76726;BME280;65651;53.154;17.916;2023-12-07T03:35:49;101455.87;;;-2.51;85.41
76726;BME280;65651;53.154;17.916;2023-12-07T03:38:16;101453.92;;;-2.57;85.44
76726;BME280;65651;53.154;17.916;2023-12-07T03:40:43;101457.89;;;-2.60;85.58
76726;BME280;65651;53.154;17.916;2023-12-07T03:43:14;101463.56;;;-2.62;85.53
76726;BME280;65651;53.154;17.916;2023-12-07T03:45:42;101464.00;;;-2.66;85.32
76726;BME280;65651;53.154;17.916;2023-12-07T03:48:09;101471.67;;;-2.70;85.43
76726;BME280;65651;53.154;17.916;2023-12-07T03:50:37;101474.59;;;-2.74;85.50
76726;BME280;65651;53.154;17.916;2023-12-07T03:53:04;101475.55;;;-2.78;85.44
76726;BME280;65651;53.154;17.916;2023-12-07T03:55:31;101476.48;;;-2.80;85.49
76726;BME280;65651;53.154;17.916;2023-12-07T03:57:58;101479.01;;;-2.81;85.46
76726;BME280;65651;53.154;17.916;2023-12-07T04:00:26;101483.61;;;-2.83;85.43
76726;BME280;65651;53.154;17.916;2023-12-07T04:02:53;101484.02;;;-2.85;85.69
76726;BME280;65651;53.154;17.916;2023-12-07T04:05:20;101486.17;;;-2.87;85.66
76726;BME280;65651;53.154;17.916;2023-12-07T04:07:47;101485.02;;;-2.90;85.59
76726;BME280;65651;53.154;17.916;2023-12-07T04:10:15;101483.34;;;-2.92;85.48
76726;BME280;65651;53.154;17.916;2023-12-07T04:12:42;101485.31;;;-2.94;85.57
76726;BME280;65651;53.154;17.916;2023-12-07T04:15:10;101487.43;;;-2.95;85.69
76726;BME280;65651;53.154;17.916;2023-12-07T04:17:37;101486.61;;;-2.97;85.49
76726;BME280;65651;53.154;17.916;2023-12-07T04:20:04;101493.16;;;-2.99;85.65
76726;BME280;65651;53.154;17.916;2023-12-07T04:22:32;101497.77;;;-3.02;85.54
76726;BME280;65651;53.154;17.916;2023-12-07T04:24:59;101501.66;;;-3.03;85.46
76726;BME280;65651;53.154;17.916;2023-12-07T04:27:26;101503.81;;;-3.04;85.69
76726;BME280;65651;53.154;17.916;2023-12-07T04:29:54;101508.27;;;-3.07;85.47
76726;BME280;65651;53.154;17.916;2023-12-07T04:32:21;101510.39;;;-3.08;85.62
76726;BME280;65651;53.154;17.916;2023-12-07T04:34:48;101512.55;;;-3.09;85.63
76726;BME280;65651;53.154;17.916;2023-12-07T04:37:15;101511.80;;;-3.08;85.64
76726;BME280;65651;53.154;17.916;2023-12-07T04:39:43;101511.27;;;-3.08;85.74
76726;BME280;65651;53.154;17.916;2023-12-07T04:42:10;101506.38;;;-3.09;85.63
76726;BME280;65651;53.154;17.916;2023-12-07T04:44:37;101505.14;;;-3.09;85.79
76726;BME280;65651;53.154;17.916;2023-12-07T04:47:05;101504.45;;;-3.09;85.67
76726;BME280;65651;53.154;17.916;2023-12-07T04:49:32;101505.52;;;-3.09;85.88
76726;BME280;65651;53.154;17.916;2023-12-07T04:52:00;101507.79;;;-3.09;85.80
76726;BME280;65651;53.154;17.916;2023-12-07T04:54:27;101506.73;;;-3.09;85.78
76726;BME280;65651;53.154;17.916;2023-12-07T04:56:55;101509.36;;;-3.09;85.76
76726;BME280;65651;53.154;17.916;2023-12-07T04:59:22;101504.10;;;-3.09;85.69
76726;BME280;65651;53.154;17.916;2023-12-07T05:01:49;101503.20;;;-3.09;85.73
76726;BME280;65651;53.154;17.916;2023-12-07T05:04:17;101505.65;;;-3.08;85.75
76726;BME280;65651;53.154;17.916;2023-12-07T05:06:44;101510.03;;;-3.07;85.78
76726;BME280;65651;53.154;17.916;2023-12-07T05:09:14;101510.92;;;-3.08;85.90
76726;BME280;65651;53.154;17.916;2023-12-07T05:11:42;101517.06;;;-3.08;85.80
76726;BME280;65651;53.154;17.916;2023-12-07T05:14:11;101521.44;;;-3.07;86.01
76726;BME280;65651;53.154;17.916;2023-12-07T05:16:40;101522.81;;;-3.06;85.85
76726;BME280;65651;53.154;17.916;2023-12-07T05:19:07;101526.10;;;-3.04;85.92
76726;BME280;65651;53.154;17.916;2023-12-07T05:21:34;101523.77;;;-3.02;85.92
76726;BME280;65651;53.154;17.916;2023-12-07T05:24:02;101525.98;;;-2.99;86.03
76726;BME280;65651;53.154;17.916;2023-12-07T05:26:30;101523.98;;;-2.97;85.98
76726;BME280;65651;53.154;17.916;2023-12-07T05:28:59;101523.95;;;-2.95;85.93
76726;BME280;65651;53.154;17.916;2023-12-07T05:31:27;101527.95;;;-2.92;86.04
76726;BME280;65651;53.154;17.916;2023-12-07T05:33:55;101532.89;;;-2.93;85.96
76726;BME280;65651;53.154;17.916;2023-12-07T05:36:23;101526.40;;;-2.94;85.89
76726;BME280;65651;53.154;17.916;2023-12-07T05:38:50;101523.59;;;-2.94;85.89
76726;BME280;65651;53.154;17.916;2023-12-07T05:41:17;101524.27;;;-2.93;85.91
76726;BME280;65651;53.154;17.916;2023-12-07T05:43:44;101525.45;;;-2.92;85.88
76726;BME280;65651;53.154;17.916;2023-12-07T05:46:11;101525.92;;;-2.89;85.97
76726;BME280;65651;53.154;17.916;2023-12-07T05:48:39;101525.05;;;-2.89;85.97
76726;BME280;65651;53.154;17.916;2023-12-07T05:51:12;101529.08;;;-2.88;85.98
76726;BME280;65651;53.154;17.916;2023-12-07T05:53:40;101530.27;;;-2.87;85.92
76726;BME280;65651;53.154;17.916;2023-12-07T05:56:09;101534.62;;;-2.86;86.08
76726;BME280;65651;53.154;17.916;2023-12-07T05:58:36;101533.79;;;-2.87;85.87
76726;BME280;65651;53.154;17.916;2023-12-07T06:01:04;101533.39;;;-2.85;85.92
76726;BME280;65651;53.154;17.916;2023-12-07T06:03:32;101534.92;;;-2.84;86.01
76726;BME280;65651;53.154;17.916;2023-12-07T06:05:59;101537.00;;;-2.82;86.02
76726;BME280;65651;53.154;17.916;2023-12-07T06:08:26;101542.05;;;-2.80;86.03
76726;BME280;65651;53.154;17.916;2023-12-07T06:10:53;101541.48;;;-2.79;85.90
76726;BME280;65651;53.154;17.916;2023-12-07T06:13:21;101550.42;;;-2.78;86.09
76726;BME280;65651;53.154;17.916;2023-12-07T06:15:48;101550.75;;;-2.78;86.00
76726;BME280;65651;53.154;17.916;2023-12-07T06:18:15;101556.86;;;-2.76;85.96
76726;BME280;65651;53.154;17.916;2023-12-07T06:20:43;101565.11;;;-2.75;86.16
76726;BME280;65651;53.154;17.916;2023-12-07T06:23:10;101569.61;;;-2.73;86.14
76726;BME280;65651;53.154;17.916;2023-12-07T06:25:39;101570.79;;;-2.71;86.07
76726;BME280;65651;53.154;17.916;2023-12-07T06:28:08;101573.92;;;-2.69;86.10
76726;BME280;65651;53.154;17.916;2023-12-07T06:30:38;101575.09;;;-2.67;86.10
76726;BME280;65651;53.154;17.916;2023-12-07T06:33:08;101577.64;;;-2.63;86.15
76726;BME280;65651;53.154;17.916;2023-12-07T06:35:36;101577.92;;;-2.61;86.15
76726;BME280;65651;53.154;17.916;2023-12-07T06:38:03;101577.73;;;-2.60;86.19
76726;BME280;65651;53.154;17.916;2023-12-07T06:40:30;101581.37;;;-2.59;86.05
76726;BME280;65651;53.154;17.916;2023-12-07T06:42:58;101581.17;;;-2.57;86.09
76726;BME280;65651;53.154;17.916;2023-12-07T06:45:26;101580.60;;;-2.55;86.12
76726;BME280;65651;53.154;17.916;2023-12-07T06:47:54;101583.88;;;-2.53;86.21
76726;BME280;65651;53.154;17.916;2023-12-07T06:50:21;101583.14;;;-2.52;86.07
76726;BME280;65651;53.154;17.916;2023-12-07T06:52:48;101587.53;;;-2.51;86.00
76726;BME280;65651;53.154;17.916;2023-12-07T06:55:15;101585.57;;;-2.50;86.16
76726;BME280;65651;53.154;17.916;2023-12-07T06:57:42;101587.95;;;-2.48;86.13
76726;BME280;65651;53.154;17.916;2023-12-07T07:00:10;101585.63;;;-2.47;86.07
76726;BME280;65651;53.154;17.916;2023-12-07T07:02:38;101588.41;;;-2.45;86.24
76726;BME280;65651;53.154;17.916;2023-12-07T07:05:08;101588.88;;;-2.42;86.21
76726;BME280;65651;53.154;17.916;2023-12-07T07:07:38;101590.75;;;-2.40;86.22
76726;BME280;65651;53.154;17.916;2023-12-07T07:10:06;101590.16;;;-2.37;86.11
76726;BME280;65651;53.154;17.916;2023-12-07T07:12:33;101588.88;;;-2.36;86.11
76726;BME280;65651;53.154;17.916;2023-12-07T07:15:01;101592.16;;;-2.33;86.19
76726;BME280;65651;53.154;17.916;2023-12-07T07:17:30;101590.89;;;-2.32;86.20
76726;BME280;65651;53.154;17.916;2023-12-07T07:19:59;101591.68;;;-2.29;86.17
76726;BME280;65651;53.154;17.916;2023-12-07T07:22:26;101592.52;;;-2.27;86.20
76726;BME280;65651;53.154;17.916;2023-12-07T07:24:53;101593.19;;;-2.26;86.15
76726;BME280;65651;53.154;17.916;2023-12-07T07:27:21;101588.75;;;-2.24;86.20
76726;BME280;65651;53.154;17.916;2023-12-07T07:29:48;101588.86;;;-2.22;86.18
76726;BME280;65651;53.154;17.916;2023-12-07T07:32:17;101590.41;;;-2.20;86.08
76726;BME280;65651;53.154;17.916;2023-12-07T07:34:44;101587.13;;;-2.16;86.20
76726;BME280;65651;53.154;17.916;2023-12-07T07:37:11;101588.08;;;-2.12;86.12
76726;BME280;65651;53.154;17.916;2023-12-07T07:39:39;101586.04;;;-2.08;86.12
76726;BME280;65651;53.154;17.916;2023-12-07T07:42:06;101591.73;;;-2.04;86.06
76726;BME280;65651;53.154;17.916;2023-12-07T07:44:33;101593.58;;;-2.01;86.19
76726;BME280;65651;53.154;17.916;2023-12-07T07:47:00;101597.51;;;-1.97;86.04
76726;BME280;65651;53.154;17.916;2023-12-07T07:49:27;101599.02;;;-1.94;86.21
76726;BME280;65651;53.154;17.916;2023-12-07T07:51:55;101599.82;;;-1.92;86.13
76726;BME280;65651;53.154;17.916;2023-12-07T07:54:22;101606.67;;;-1.91;86.08
76726;BME280;65651;53.154;17.916;2023-12-07T07:56:52;101605.07;;;-1.90;86.09
76726;BME280;65651;53.154;17.916;2023-12-07T07:59:19;101603.11;;;-1.89;86.15
76726;BME280;65651;53.154;17.916;2023-12-07T08:01:47;101603.41;;;-1.87;85.99
76726;BME280;65651;53.154;17.916;2023-12-07T08:04:15;101598.47;;;-1.87;85.93
76726;BME280;65651;53.154;17.916;2023-12-07T08:06:43;101597.15;;;-1.84;86.05
76726;BME280;65651;53.154;17.916;2023-12-07T08:09:10;101596.85;;;-1.79;86.12
76726;BME280;65651;53.154;17.916;2023-12-07T08:11:37;101597.30;;;-1.76;86.04
76726;BME280;65651;53.154;17.916;2023-12-07T08:14:04;101599.66;;;-1.73;86.23
76726;BME280;65651;53.154;17.916;2023-12-07T08:16:33;101600.59;;;-1.69;86.20
76726;BME280;65651;53.154;17.916;2023-12-07T08:19:00;101597.86;;;-1.65;86.13
76726;BME280;65651;53.154;17.916;2023-12-07T08:21:27;101602.35;;;-1.63;86.12
76726;BME280;65651;53.154;17.916;2023-12-07T08:23:56;101604.73;;;-1.60;85.99
76726;BME280;65651;53.154;17.916;2023-12-07T08:26:24;101603.27;;;-1.57;86.10
76726;BME280;65651;53.154;17.916;2023-12-07T08:28:51;101605.55;;;-1.58;86.05
76726;BME280;65651;53.154;17.916;2023-12-07T08:31:23;101605.44;;;-1.53;86.15
76726;BME280;65651;53.154;17.916;2023-12-07T08:33:51;101608.67;;;-1.50;86.15
76726;BME280;65651;53.154;17.916;2023-12-07T08:36:18;101606.83;;;-1.48;86.10
76726;BME280;65651;53.154;17.916;2023-12-07T08:38:46;101609.92;;;-1.45;86.07
76726;BME280;65651;53.154;17.916;2023-12-07T08:41:13;101610.49;;;-1.40;86.09
76726;BME280;65651;53.154;17.916;2023-12-07T08:43:40;101607.58;;;-1.37;86.08
76726;BME280;65651;53.154;17.916;2023-12-07T08:46:07;101613.35;;;-1.35;85.92
76726;BME280;65651;53.154;17.916;2023-12-07T08:48:37;101618.39;;;-1.33;85.97
76726;BME280;65651;53.154;17.916;2023-12-07T08:51:05;101618.29;;;-1.30;85.89
76726;BME280;65651;53.154;17.916;2023-12-07T08:53:35;101612.70;;;-1.26;85.89
76726;BME280;65651;53.154;17.916;2023-12-07T08:56:05;101616.39;;;-1.20;85.90
76726;BME280;65651;53.154;17.916;2023-12-07T08:58:32;101620.05;;;-1.13;85.89
76726;BME280;65651;53.154;17.916;2023-12-07T09:00:59;101621.46;;;-1.07;85.87
76726;BME280;65651;53.154;17.916;2023-12-07T09:03:26;101621.16;;;-1.02;85.85
76726;BME280;65651;53.154;17.916;2023-12-07T09:06:00;101629.91;;;-1.00;85.91
76726;BME280;65651;53.154;17.916;2023-12-07T09:08:27;101635.52;;;-1.00;85.83
76726;BME280;65651;53.154;17.916;2023-12-07T09:10:55;101637.59;;;-0.98;85.87
76726;BME280;65651;53.154;17.916;2023-12-07T09:13:22;101637.22;;;-0.98;85.81
76726;BME280;65651;53.154;17.916;2023-12-07T09:15:49;101641.20;;;-0.95;85.83
76726;BME280;65651;53.154;17.916;2023-12-07T09:18:16;101635.00;;;-0.95;85.79
76726;BME280;65651;53.154;17.916;2023-12-07T09:20:46;101629.66;;;-0.93;85.78
76726;BME280;65651;53.154;17.916;2023-12-07T09:23:14;101627.03;;;-0.93;85.61
76726;BME280;65651;53.154;17.916;2023-12-07T09:25:44;101630.22;;;-0.88;85.77
76726;BME280;65651;53.154;17.916;2023-12-07T09:28:12;101631.69;;;-0.84;85.75
76726;BME280;65651;53.154;17.916;2023-12-07T09:30:40;101631.80;;;-0.82;85.64
76726;BME280;65651;53.154;17.916;2023-12-07T09:33:08;101631.46;;;-0.77;85.78
76726;BME280;65651;53.154;17.916;2023-12-07T09:35:36;101626.42;;;-0.74;85.67
76726;BME280;65651;53.154;17.916;2023-12-07T09:38:03;101627.31;;;-0.68;85.83
76726;BME280;65651;53.154;17.916;2023-12-07T09:40:30;101620.30;;;-0.64;85.59
76726;BME280;65651;53.154;17.916;2023-12-07T09:42:58;101616.34;;;-0.57;85.70
76726;BME280;65651;53.154;17.916;2023-12-07T09:45:25;101612.68;;;-0.52;85.62
76726;BME280;65651;53.154;17.916;2023-12-07T09:47:53;101612.75;;;-0.49;85.65
76726;BME280;65651;53.154;17.916;2023-12-07T09:50:24;101615.42;;;-0.45;85.66
76726;BME280;65651;53.154;17.916;2023-12-07T09:52:53;101617.23;;;-0.41;85.60
76726;BME280;65651;53.154;17.916;2023-12-07T09:55:24;101619.81;;;-0.39;85.47
76726;BME280;65651;53.154;17.916;2023-12-07T09:57:52;101624.70;;;-0.37;85.63
76726;BME280;65651;53.154;17.916;2023-12-07T10:00:21;101623.91;;;-0.35;85.56
76726;BME280;65651;53.154;17.916;2023-12-07T10:02:48;101625.58;;;-0.32;85.82
76726;BME280;65651;53.154;17.916;2023-12-07T10:05:18;101623.45;;;-0.32;85.64
76726;BME280;65651;53.154;17.916;2023-12-07T10:07:49;101617.83;;;-0.32;85.37
76726;BME280;65651;53.154;17.916;2023-12-07T10:10:19;101617.61;;;-0.32;85.57
76726;BME280;65651;53.154;17.916;2023-12-07T10:12:53;101614.38;;;-0.29;85.49
76726;BME280;65651;53.154;17.916;2023-12-07T10:15:22;101617.91;;;-0.24;85.49
76726;BME280;65651;53.154;17.916;2023-12-07T10:17:51;101618.00;;;-0.22;85.53
76726;BME280;65651;53.154;17.916;2023-12-07T10:20:23;101618.60;;;-0.19;85.46
76726;BME280;65651;53.154;17.916;2023-12-07T10:23:01;101617.48;;;-0.17;85.56
76726;BME280;65651;53.154;17.916;2023-12-07T10:25:33;101615.84;;;-0.15;85.37
76726;BME280;65651;53.154;17.916;2023-12-07T10:28:03;101610.52;;;-0.15;85.55
76726;BME280;65651;53.154;17.916;2023-12-07T10:30:34;101609.90;;;-0.12;85.44
76726;BME280;65651;53.154;17.916;2023-12-07T10:33:06;101607.98;;;-0.08;85.46
76726;BME280;65651;53.154;17.916;2023-12-07T10:35:44;101603.86;;;-0.06;85.32
76726;BME280;65651;53.154;17.916;2023-12-07T10:38:12;101607.16;;;0.01;85.45
76726;BME280;65651;53.154;17.916;2023-12-07T10:40:40;101605.00;;;0.02;85.36
76726;BME280;65651;53.154;17.916;2023-12-07T10:43:20;101601.65;;;0.06;85.44
76726;BME280;65651;53.154;17.916;2023-12-07T10:50:23;101609.02;;;0.17;85.01
76726;BME280;65651;53.154;17.916;2023-12-07T10:52:53;101605.44;;;0.14;85.08
76726;BME280;65651;53.154;17.916;2023-12-07T10:55:28;101603.49;;;0.14;85.02
76726;BME280;65651;53.154;17.916;2023-12-07T10:57:58;101602.22;;;0.20;85.17
76726;BME280;65651;53.154;17.916;2023-12-07T11:00:30;101596.84;;;0.27;84.99
76726;BME280;65651;53.154;17.916;2023-12-07T11:02:58;101598.89;;;0.34;85.13
76726;BME280;65651;53.154;17.916;2023-12-07T11:05:26;101598.15;;;0.40;84.95
76726;BME280;65651;53.154;17.916;2023-12-07T11:08:05;101592.86;;;0.44;84.96
76726;BME280;65651;53.154;17.916;2023-12-07T11:13:22;101593.73;;;0.49;84.64
76726;BME280;65651;53.154;17.916;2023-12-07T11:15:51;101597.80;;;0.48;84.93
76726;BME280;65651;53.154;17.916;2023-12-07T11:18:19;101597.78;;;0.49;84.84
76726;BME280;65651;53.154;17.916;2023-12-07T11:20:47;101596.55;;;0.49;84.64
76726;BME280;65651;53.154;17.916;2023-12-07T11:23:17;101596.34;;;0.50;84.85
76726;BME280;65651;53.154;17.916;2023-12-07T11:25:49;101590.21;;;0.49;84.49
76726;BME280;65651;53.154;17.916;2023-12-07T11:28:17;101590.94;;;0.44;84.53
76726;BME280;65651;53.154;17.916;2023-12-07T11:30:46;101588.08;;;0.45;84.50
76726;BME280;65651;53.154;17.916;2023-12-07T11:33:15;101591.57;;;0.46;84.23
76726;BME280;65651;53.154;17.916;2023-12-07T11:38:29;101586.77;;;0.46;84.31
76726;BME280;65651;53.154;17.916;2023-12-07T11:41:02;101590.98;;;0.47;84.54
76726;BME280;65651;53.154;17.916;2023-12-07T11:44:51;101588.61;;;0.49;84.53
76726;BME280;65651;53.154;17.916;2023-12-07T11:47:20;101584.44;;;0.52;84.17
76726;BME280;65651;53.154;17.916;2023-12-07T11:49:48;101581.73;;;0.53;84.25
76726;BME280;65651;53.154;17.916;2023-12-07T11:52:19;101580.13;;;0.49;84.06
76726;BME280;65651;53.154;17.916;2023-12-07T11:54:47;101573.42;;;0.49;84.44
76726;BME280;65651;53.154;17.916;2023-12-07T11:57:16;101570.33;;;0.47;84.21
76726;BME280;65651;53.154;17.916;2023-12-07T11:59:44;101572.32;;;0.46;84.15
76726;BME280;65651;53.154;17.916;2023-12-07T12:05:51;101569.38;;;0.40;84.46
76726;BME280;65651;53.154;17.916;2023-12-07T12:08:20;101571.88;;;0.39;84.15
76726;BME280;65651;53.154;17.916;2023-12-07T12:10:49;101571.34;;;0.39;84.06
76726;BME280;65651;53.154;17.916;2023-12-07T12:13:18;101574.91;;;0.33;84.17
76726;BME280;65651;53.154;17.916;2023-12-07T12:15:46;101571.31;;;0.30;84.48
76726;BME280;65651;53.154;17.916;2023-12-07T12:18:13;101569.34;;;0.30;84.14
76726;BME280;65651;53.154;17.916;2023-12-07T12:20:40;101567.41;;;0.30;84.30
76726;BME280;65651;53.154;17.916;2023-12-07T12:23:08;101568.11;;;0.31;84.16
76726;BME280;65651;53.154;17.916;2023-12-07T12:25:36;101565.75;;;0.28;84.15
76726;BME280;65651;53.154;17.916;2023-12-07T12:28:05;101565.80;;;0.26;84.16
76726;BME280;65651;53.154;17.916;2023-12-07T12:30:34;101563.09;;;0.28;84.28
76726;BME280;65651;53.154;17.916;2023-12-07T12:33:01;101564.13;;;0.29;84.31
76726;BME280;65651;53.154;17.916;2023-12-07T12:35:29;101566.44;;;0.28;84.20
76726;BME280;65651;53.154;17.916;2023-12-07T12:37:56;101566.23;;;0.29;84.26
76726;BME280;65651;53.154;17.916;2023-12-07T12:40:26;101566.75;;;0.29;84.17
76726;BME280;65651;53.154;17.916;2023-12-07T12:42:54;101570.27;;;0.29;84.20
76726;BME280;65651;53.154;17.916;2023-12-07T12:45:22;101571.45;;;0.31;84.25
76726;BME280;65651;53.154;17.916;2023-12-07T12:47:49;101573.02;;;0.32;84.12
76726;BME280;65651;53.154;17.916;2023-12-07T12:50:37;101569.52;;;0.31;84.51
76726;BME280;65651;53.154;17.916;2023-12-07T12:53:09;101566.22;;;0.29;84.06
76726;BME280;65651;53.154;17.916;2023-12-07T12:55:38;101565.70;;;0.29;84.22
76726;BME280;65651;53.154;17.916;2023-12-07T12:58:07;101566.44;;;0.28;83.99
76726;BME280;65651;53.154;17.916;2023-12-07T13:00:39;101564.17;;;0.28;84.08
76726;BME280;65651;53.154;17.916;2023-12-07T13:03:08;101564.68;;;0.28;84.18
76726;BME280;65651;53.154;17.916;2023-12-07T13:05:35;101565.91;;;0.28;84.17